createdAt,value
2022-08-09T00:00:13.931Z,43.95
2022-08-09T00:02:42.744Z,44.04
2022-08-09T00:06:18.424Z,44.87
2022-08-09T00:08:31.516Z,46.05
2022-08-09T00:10:59.554Z,46.35
2022-08-09T00:13:28.159Z,46.67
2022-08-09T00:16:02.906Z,47.04
2022-08-09T00:18:35.612Z,46.33
2022-08-09T00:21:08.941Z,45.46
2022-08-09T00:23:58.117Z,45.52
2022-08-09T00:26:32.841Z,45.66
2022-08-09T00:29:02.513Z,46.48
2022-08-09T00:31:58.749Z,46.11
2022-08-09T00:34:19.717Z,45.63
2022-08-09T00:36:48.814Z,45.31
2022-08-09T00:40:13.518Z,45.33
2022-08-09T00:44:09.871Z,46.26
2022-08-09T00:44:51.192Z,45.95
2022-08-09T00:47:21.574Z,46.42
2022-08-09T00:49:54.810Z,46.95
2022-08-09T00:52:28.083Z,47.00
2022-08-09T00:55:00.327Z,46.49
2022-08-09T01:00:20.691Z,47.76
2022-08-09T01:03:15.230Z,47.13
2022-08-09T01:06:03.921Z,46.81
2022-08-09T01:09:02.802Z,47.14
2022-08-09T01:12:04.220Z,47.26
2022-08-09T01:15:16.725Z,46.97
2022-08-09T01:18:08.746Z,47.39
2022-08-09T01:21:00.016Z,47.18
2022-08-09T01:24:04.965Z,47.14
2022-08-09T01:27:11.797Z,47.68
2022-08-09T01:29:55.646Z,47.48
2022-08-09T01:32:37.050Z,46.75
2022-08-09T01:35:37.291Z,46.72
2022-08-09T01:38:20.670Z,47.46
2022-08-09T01:41:26.029Z,47.74
2022-08-09T01:43:57.881Z,48.13
2022-08-09T01:46:29.764Z,47.65
2022-08-09T01:49:12.669Z,47.79
2022-08-09T01:51:58.862Z,47.61
2022-08-09T01:54:44.176Z,47.97
2022-08-09T01:57:39.942Z,48.52
2022-08-09T02:00:34.439Z,48.72
2022-08-09T02:03:05.029Z,48.40
2022-08-09T02:05:53.582Z,48.48
2022-08-09T02:08:40.945Z,48.59
2022-08-09T02:11:17.062Z,48.55
2022-08-09T02:13:55.464Z,48.64
2022-08-09T02:16:59.122Z,48.62
2022-08-09T02:19:35.020Z,49.65
2022-08-09T02:22:27.503Z,50.36
2022-08-09T02:25:07.927Z,50.20
2022-08-09T02:27:57.471Z,50.05
2022-08-09T02:30:29.221Z,50.29
2022-08-09T02:32:59.418Z,50.21
2022-08-09T02:36:01.588Z,49.75
2022-08-09T02:38:28.836Z,49.19
2022-08-09T02:41:06.275Z,49.05
2022-08-09T02:43:53.873Z,49.06
2022-08-09T02:46:28.545Z,49.25
2022-08-09T02:49:03.022Z,49.28
2022-08-09T02:51:40.551Z,49.68
2022-08-09T02:54:14.576Z,49.40
2022-08-09T02:56:51.064Z,49.42
2022-08-09T02:59:25.917Z,49.47
2022-08-09T03:02:12.237Z,50.37
2022-08-09T03:04:46.138Z,50.35
2022-08-09T03:07:19.153Z,49.92
2022-08-09T03:09:54.187Z,50.07
2022-08-09T03:12:26.278Z,49.97
2022-08-09T03:14:56.404Z,50.83
2022-08-09T03:17:27.030Z,50.65
2022-08-09T03:20:03.158Z,50.91
2022-08-09T03:22:42.048Z,51.77
2022-08-09T03:25:57.678Z,51.42
2022-08-09T03:28:03.469Z,51.58
2022-08-09T03:30:34.487Z,51.81
2022-08-09T03:33:17.584Z,51.40
2022-08-09T03:36:12.258Z,50.68
2022-08-09T03:38:43.259Z,51.02
2022-08-09T03:41:16.271Z,51.44
2022-08-09T03:44:04.019Z,51.61
2022-08-09T03:46:34.094Z,51.52
2022-08-09T03:49:04.251Z,51.72
2022-08-09T03:51:55.888Z,51.83
2022-08-09T03:54:31.822Z,51.72
2022-08-09T03:57:18.595Z,51.53
2022-08-09T03:59:55.812Z,51.17
2022-08-09T04:02:31.219Z,51.04
2022-08-09T04:05:06.539Z,51.94
2022-08-09T04:07:56.667Z,51.83
2022-08-09T04:10:29.238Z,52.32
2022-08-09T04:13:01.411Z,52.15
2022-08-09T04:15:52.282Z,52.66
2022-08-09T04:18:21.218Z,52.65
2022-08-09T04:20:49.533Z,52.78
2022-08-09T04:23:17.774Z,52.63
2022-08-09T04:25:51.601Z,52.90
2022-08-09T04:28:33.672Z,53.64
2022-08-09T04:31:09.055Z,53.43
2022-08-09T04:33:53.082Z,53.62
2022-08-09T04:36:30.698Z,53.33
2022-08-09T04:39:02.559Z,53.25
2022-08-09T04:41:32.599Z,53.06
2022-08-09T04:44:06.995Z,52.45
2022-08-09T04:46:59.841Z,52.20
2022-08-09T04:49:40.460Z,52.06
2022-08-09T04:52:18.671Z,52.13
2022-08-09T04:54:53.120Z,52.61
2022-08-09T04:57:25.105Z,53.10
2022-08-09T04:59:55.252Z,52.56
2022-08-09T05:02:27.328Z,52.22
2022-08-09T05:04:56.297Z,52.62
2022-08-09T05:07:25.211Z,52.87
2022-08-09T05:09:56.230Z,53.21
2022-08-09T05:12:24.291Z,53.35
2022-08-09T05:14:51.717Z,53.21
2022-08-09T05:18:55.194Z,52.54
2022-08-09T05:20:06.927Z,52.77
2022-08-09T05:22:35.925Z,52.41
2022-08-09T05:25:22.733Z,52.88
2022-08-09T05:27:52.826Z,52.62
2022-08-09T05:30:22.482Z,51.93
2022-08-09T05:32:50.878Z,52.06
2022-08-09T05:35:18.330Z,51.83
2022-08-09T05:37:50.464Z,51.99
2022-08-09T05:40:18.598Z,52.11
2022-08-09T05:42:45.972Z,52.10
2022-08-09T05:45:14.376Z,51.80
2022-08-09T05:47:45.577Z,51.89
2022-08-09T05:50:28.091Z,51.96
2022-08-09T05:53:02.258Z,51.83
2022-08-09T05:55:29.293Z,51.99
2022-08-09T05:57:58.759Z,51.65
2022-08-09T06:00:29.144Z,51.25
2022-08-09T06:03:02.228Z,51.25
2022-08-09T06:05:54.625Z,50.97
2022-08-09T06:08:19.056Z,50.79
2022-08-09T06:10:47.057Z,50.63
2022-08-09T06:13:18.948Z,50.86
2022-08-09T06:15:51.745Z,50.49
2022-08-09T06:18:25.337Z,50.54
2022-08-09T06:20:57.642Z,50.73
2022-08-09T06:23:58.688Z,50.42
2022-08-09T06:26:20.233Z,50.28
2022-08-09T06:29:00.691Z,50.32
2022-08-09T06:31:31.332Z,49.75
2022-08-09T06:34:07.266Z,49.69
2022-08-09T06:36:34.625Z,49.09
2022-08-09T06:39:02.617Z,48.80
2022-08-09T06:42:07.677Z,48.75
2022-08-09T06:44:23.008Z,48.44
2022-08-09T06:46:56.104Z,48.28
2022-08-09T06:49:44.477Z,48.22
2022-08-09T06:52:12.137Z,48.03
2022-08-09T06:54:42.959Z,47.50
2022-08-09T06:57:12.061Z,47.38
2022-08-09T07:00:50.576Z,47.00
2022-08-09T07:02:30.926Z,46.30
2022-08-09T07:05:25.348Z,46.12
2022-08-09T07:08:12.159Z,46.13
2022-08-09T07:10:39.713Z,46.12
2022-08-09T07:13:27.309Z,45.93
2022-08-09T07:16:39.533Z,45.68
2022-08-09T07:18:40.994Z,45.50
2022-08-09T07:21:10.343Z,45.23
2022-08-09T07:23:46.540Z,45.51
2022-08-09T07:26:13.862Z,45.20
2022-08-09T07:29:01.349Z,44.75
2022-08-09T07:31:29.539Z,44.55
2022-08-09T07:34:05.331Z,44.25
2022-08-09T07:36:32.454Z,44.00
2022-08-09T07:39:01.055Z,43.69
2022-08-09T07:41:32.875Z,43.57
2022-08-09T07:44:05.669Z,43.04
2022-08-09T07:46:34.097Z,42.52
2022-08-09T07:49:04.728Z,42.47
2022-08-09T07:52:06.048Z,42.32
2022-08-09T07:54:28.146Z,42.11
2022-08-09T07:56:58.612Z,41.73
2022-08-09T07:59:45.739Z,41.22
2022-08-09T08:02:19.493Z,41.14
2022-08-09T08:04:48.960Z,40.49
2022-08-09T08:09:00.347Z,40.32
2022-08-09T08:10:08.739Z,40.10
2022-08-09T08:12:43.095Z,39.71
2022-08-09T08:15:23.963Z,39.24
2022-08-09T08:17:57.937Z,38.99
2022-08-09T08:20:30.288Z,38.74
2022-08-09T08:23:15.907Z,38.28
2022-08-09T08:25:50.226Z,38.41
2022-08-09T08:28:31.925Z,37.64
2022-08-09T08:31:04.901Z,37.48
2022-08-09T08:33:54.057Z,36.80
2022-08-09T08:36:29.316Z,36.98
2022-08-09T08:38:59.761Z,36.54
2022-08-09T08:41:50.767Z,35.99
2022-08-09T08:44:23.068Z,35.98
2022-08-09T08:47:03.133Z,36.08
2022-08-09T08:49:47.143Z,35.41
2022-08-09T08:52:57.457Z,35.48
2022-08-09T08:55:10.630Z,34.78
2022-08-09T08:57:38.102Z,35.10
2022-08-09T09:00:20.544Z,33.74
2022-08-09T09:02:52.887Z,34.02
2022-08-09T09:05:33.211Z,31.22
2022-08-09T09:08:30.048Z,32.11
2022-08-09T09:11:05.507Z,31.24
2022-08-09T09:13:47.364Z,32.40
2022-08-09T09:16:32.163Z,32.25
2022-08-09T09:22:11.858Z,31.12
2022-08-09T09:24:52.188Z,28.72
2022-08-09T09:28:05.567Z,29.91
2022-08-09T09:30:34.526Z,32.11
2022-08-09T09:33:15.683Z,30.30
2022-08-09T09:36:02.156Z,31.07
2022-08-09T09:38:56.992Z,30.28
2022-08-09T09:41:24.183Z,29.74
2022-08-09T09:44:10.991Z,28.24
2022-08-09T09:46:52.209Z,27.15
2022-08-09T09:49:56.109Z,28.36
2022-08-09T09:52:16.505Z,31.48
2022-08-09T09:55:27.613Z,28.30
2022-08-09T09:58:16.443Z,30.07
2022-08-09T10:00:58.709Z,28.93
2022-08-09T10:03:57.488Z,29.43
2022-08-09T10:06:42.594Z,27.97
2022-08-09T10:09:22.949Z,29.07
2022-08-09T10:12:12.160Z,28.71
2022-08-09T10:14:44.027Z,26.70
2022-08-09T10:17:39.638Z,28.00
2022-08-09T10:20:32.194Z,28.12
2022-08-09T10:23:21.962Z,28.96
2022-08-09T10:26:06.517Z,27.46
2022-08-09T10:28:37.826Z,26.70
2022-08-09T10:34:08.729Z,28.05
2022-08-09T10:36:40.103Z,25.46
2022-08-09T10:39:15.735Z,26.35
2022-08-09T10:41:47.646Z,25.92
2022-08-09T10:44:25.503Z,28.55
2022-08-09T10:47:20.369Z,27.11
2022-08-09T10:50:30.720Z,26.42
2022-08-09T10:53:28.716Z,25.80
2022-08-09T10:56:23.888Z,25.53
2022-08-09T10:58:58.142Z,25.96
2022-08-09T11:03:10.847Z,25.99
2022-08-09T11:04:30.551Z,27.19
2022-08-09T11:06:59.522Z,24.80
2022-08-09T11:09:47.354Z,25.38
2022-08-09T11:12:26.476Z,24.96
2022-08-09T11:15:34.036Z,25.22
2022-08-09T11:18:05.670Z,23.53
2022-08-09T11:20:50.178Z,23.70
2022-08-09T11:23:29.813Z,23.71
2022-08-09T11:25:57.368Z,23.57
2022-08-09T11:28:34.367Z,23.08
2022-08-09T11:31:34.144Z,21.94
2022-08-09T11:34:15.587Z,21.22
2022-08-09T11:36:44.902Z,20.29
2022-08-09T11:39:11.959Z,20.24
2022-08-09T11:41:40.697Z,19.40
2022-08-09T11:44:08.878Z,19.40
2022-08-09T11:46:58.005Z,20.06
2022-08-09T11:50:55.279Z,19.38
2022-08-09T11:53:16.756Z,19.01
2022-08-09T11:56:02.413Z,18.30
2022-08-09T11:58:33.182Z,18.62
2022-08-09T12:01:08.920Z,19.50
2022-08-09T12:04:01.794Z,18.54
2022-08-09T12:06:32.428Z,17.93
2022-08-09T12:09:15.321Z,17.85
2022-08-09T12:12:02.957Z,17.78
2022-08-09T12:14:36.765Z,17.82
2022-08-09T12:17:27.711Z,17.37
2022-08-09T12:19:59.596Z,17.59
2022-08-09T12:22:29.212Z,17.36
2022-08-09T12:25:16.593Z,17.12
2022-08-09T12:29:11.408Z,16.59
2022-08-09T12:30:35.616Z,16.44
2022-08-09T12:33:05.472Z,16.24
2022-08-09T12:35:40.204Z,16.46
2022-08-09T12:38:38.238Z,16.53
2022-08-09T12:41:08.711Z,16.66
2022-08-09T12:44:06.149Z,16.21
2022-08-09T12:46:28.139Z,16.13
2022-08-09T12:48:56.944Z,16.30
2022-08-09T12:51:52.587Z,16.15
2022-08-09T12:54:11.900Z,16.46
2022-08-09T12:56:51.444Z,16.24
2022-08-09T12:59:57.757Z,16.35
2022-08-09T13:02:11.906Z,16.26
2022-08-09T13:04:58.802Z,15.69
2022-08-09T13:07:28.647Z,15.99
2022-08-09T13:10:13.076Z,15.67
2022-08-09T13:13:09.799Z,15.60
2022-08-09T13:15:56.755Z,15.57
2022-08-09T13:18:27.102Z,15.43
2022-08-09T13:22:33.822Z,15.01
2022-08-09T13:24:16.602Z,14.74
2022-08-09T13:26:37.347Z,15.25
2022-08-09T13:29:19.271Z,15.15
2022-08-09T13:32:14.965Z,15.61
2022-08-09T13:34:46.195Z,15.40
2022-08-09T13:37:24.630Z,14.98
2022-08-09T13:41:31.151Z,15.08
2022-08-09T13:42:54.255Z,14.90
2022-08-09T13:45:21.674Z,15.15
2022-08-09T13:47:59.563Z,15.13
2022-08-09T13:50:31.111Z,15.20
2022-08-09T13:52:59.242Z,15.06
2022-08-09T13:55:29.034Z,15.17
2022-08-09T13:58:02.959Z,15.20
2022-08-09T14:00:36.593Z,14.93
2022-08-09T14:04:00.960Z,15.21
2022-08-09T14:06:02.384Z,15.11
2022-08-09T14:08:32.527Z,15.18
2022-08-09T14:11:01.196Z,15.08
2022-08-09T14:14:24.006Z,14.91
2022-08-09T14:16:28.156Z,15.10
2022-08-09T14:18:58.349Z,15.05
2022-08-09T14:21:29.358Z,15.48
2022-08-09T14:23:57.630Z,15.40
2022-08-09T14:26:33.551Z,15.33
2022-08-09T14:29:25.417Z,15.44
2022-08-09T14:31:58.889Z,15.45
2022-08-09T14:34:41.186Z,15.22
2022-08-09T14:37:09.177Z,15.64
2022-08-09T14:39:45.355Z,15.73
2022-08-09T14:42:13.598Z,15.71
2022-08-09T14:44:59.418Z,16.06
2022-08-09T14:47:44.822Z,15.85
2022-08-09T14:50:15.923Z,15.70
2022-08-09T14:52:43.651Z,15.90
2022-08-09T14:55:19.831Z,15.53
2022-08-09T14:57:47.122Z,16.29
2022-08-09T15:00:17.606Z,16.03
2022-08-09T15:02:51.995Z,16.05
2022-08-09T15:05:20.040Z,16.15
2022-08-09T15:07:56.030Z,15.99
2022-08-09T15:10:25.503Z,16.02
2022-08-09T15:16:03.463Z,16.90
2022-08-09T15:18:34.768Z,16.95
2022-08-09T15:21:58.696Z,16.70
2022-08-09T15:24:00.799Z,17.36
2022-08-09T15:26:32.273Z,17.30
2022-08-09T15:29:04.301Z,17.18
2022-08-09T15:31:41.607Z,16.96
2022-08-09T15:34:31.578Z,18.02
2022-08-09T15:36:58.241Z,18.31
2022-08-09T15:39:25.998Z,18.67
2022-08-09T15:42:12.726Z,19.29
2022-08-09T15:44:44.367Z,19.52
2022-08-09T15:47:14.339Z,19.63
2022-08-09T15:50:00.542Z,19.88
2022-08-09T15:52:32.487Z,19.94
2022-08-09T15:55:00.444Z,20.20
2022-08-09T15:57:35.472Z,21.87
2022-08-09T16:00:25.171Z,20.61
2022-08-09T16:02:56.269Z,20.34
2022-08-09T16:05:46.967Z,20.85
2022-08-09T16:10:04.559Z,20.79
2022-08-09T16:12:33.068Z,20.62
2022-08-09T16:15:01.688Z,21.20
2022-08-09T16:17:29.147Z,21.15
2022-08-09T16:20:04.584Z,21.15
2022-08-09T16:22:42.331Z,21.41
2022-08-09T16:25:15.881Z,21.50
2022-08-09T16:27:43.048Z,21.89
2022-08-09T16:30:28.572Z,21.01
2022-08-09T16:33:08.621Z,21.46
2022-08-09T16:35:56.410Z,21.32
2022-08-09T16:38:25.246Z,21.13
2022-08-09T16:40:52.199Z,21.59
2022-08-09T16:43:21.188Z,21.35
2022-08-09T16:45:48.260Z,21.97
2022-08-09T16:48:38.471Z,21.89
2022-08-09T16:51:14.362Z,22.52
2022-08-09T16:56:34.917Z,22.32
2022-08-09T16:59:10.562Z,22.41
2022-08-09T17:01:43.099Z,22.99
2022-08-09T17:04:25.983Z,22.64
2022-08-09T17:08:44.246Z,22.23
2022-08-09T17:09:47.056Z,22.13
2022-08-09T17:12:15.499Z,22.39
2022-08-09T17:14:47.822Z,22.53
2022-08-09T17:17:26.400Z,22.53
2022-08-09T17:20:28.415Z,22.93
2022-08-09T17:22:50.645Z,22.46
2022-08-09T17:25:19.765Z,22.90
2022-08-09T17:27:49.499Z,22.87
2022-08-09T17:30:28.770Z,22.62
2022-08-09T17:33:04.617Z,22.87
2022-08-09T17:35:35.549Z,22.97
2022-08-09T17:38:12.846Z,22.92
2022-08-09T17:40:41.753Z,22.53
2022-08-09T17:43:33.722Z,22.85
2022-08-09T17:46:06.422Z,22.78
2022-08-09T17:48:46.605Z,23.18
2022-08-09T17:51:20.327Z,23.24
2022-08-09T17:53:55.556Z,23.19
2022-08-09T17:56:28.934Z,23.51
2022-08-09T17:59:00.867Z,23.37
2022-08-09T18:02:03.354Z,23.64
2022-08-09T18:04:20.358Z,23.85
2022-08-09T18:06:54.972Z,24.74
2022-08-09T18:13:39.611Z,24.28
2022-08-09T18:16:04.970Z,24.64
2022-08-09T18:18:32.765Z,24.46
2022-08-09T18:21:19.077Z,24.42
2022-08-09T18:24:09.602Z,24.83
2022-08-09T18:26:38.194Z,24.97
2022-08-09T18:30:42.518Z,25.17
2022-08-09T18:32:00.674Z,25.00
2022-08-09T18:34:34.162Z,25.68
2022-08-09T18:37:02.709Z,25.68
2022-08-09T18:39:32.839Z,26.13
2022-08-09T18:42:05.330Z,26.11
2022-08-09T18:44:35.558Z,26.22
2022-08-09T18:47:07.498Z,26.53
2022-08-09T18:49:43.289Z,26.59
2022-08-09T18:52:16.009Z,26.55
2022-08-09T18:54:52.733Z,26.95
2022-08-09T18:57:22.372Z,26.93
2022-08-09T18:59:55.336Z,27.89
2022-08-09T19:02:31.974Z,28.09
2022-08-09T19:05:04.357Z,28.47
2022-08-09T19:07:43.302Z,29.20
2022-08-09T19:10:37.792Z,29.38
2022-08-09T19:13:20.559Z,29.26
2022-08-09T19:15:52.565Z,29.81
2022-08-09T19:18:32.914Z,30.47
2022-08-09T19:21:09.929Z,30.38
2022-08-09T19:24:38.010Z,31.13
2022-08-09T19:26:34.901Z,31.21
2022-08-09T19:29:09.653Z,31.35
2022-08-09T19:31:43.979Z,31.63
2022-08-09T19:34:21.818Z,32.04
2022-08-09T19:36:55.953Z,31.72
2022-08-09T19:39:43.196Z,31.86
2022-08-09T19:42:15.175Z,31.77
2022-08-09T19:44:50.472Z,31.62
2022-08-09T19:47:22.702Z,31.53
2022-08-09T19:50:10.247Z,31.81
2022-08-09T19:52:51.549Z,31.39
2022-08-09T19:56:01.998Z,31.56
2022-08-09T19:58:30.520Z,31.49
2022-08-09T20:00:58.250Z,31.41
2022-08-09T20:04:25.133Z,31.85
2022-08-09T20:06:24.067Z,32.13
2022-08-09T20:09:00.034Z,32.08
2022-08-09T20:11:33.857Z,32.52
2022-08-09T20:14:15.274Z,32.51
2022-08-09T20:16:50.195Z,32.98
2022-08-09T20:19:48.704Z,32.94
2022-08-09T20:22:14.750Z,33.20
2022-08-09T20:24:51.869Z,33.21
2022-08-09T20:27:21.866Z,33.11
2022-08-09T20:29:49.006Z,33.59
2022-08-09T20:32:30.615Z,33.74
2022-08-09T20:35:02.852Z,33.97
2022-08-09T20:38:18.965Z,33.73
2022-08-09T20:40:27.636Z,33.95
2022-08-09T20:43:00.039Z,34.21
2022-08-09T20:45:59.710Z,34.39
2022-08-09T20:48:31.135Z,34.58
2022-08-09T20:51:01.017Z,35.14
2022-08-09T20:53:36.565Z,35.04
2022-08-09T20:56:20.572Z,35.06
2022-08-09T20:58:54.491Z,35.25
2022-08-09T21:01:35.052Z,35.25
2022-08-09T21:05:54.408Z,35.58
2022-08-09T21:07:11.998Z,36.08
2022-08-09T21:09:56.501Z,36.06
2022-08-09T21:15:23.733Z,36.24
2022-08-09T21:18:22.214Z,36.50
2022-08-09T21:20:54.576Z,36.34
2022-08-09T21:23:35.986Z,36.38
2022-08-09T21:26:11.457Z,36.93
2022-08-09T21:28:39.639Z,37.15
2022-08-09T21:31:48.683Z,37.67
2022-08-09T21:34:12.738Z,37.79
2022-08-09T21:36:39.828Z,37.69
2022-08-09T21:39:27.805Z,37.75
2022-08-09T21:42:10.493Z,38.19
2022-08-09T21:44:42.591Z,38.33
2022-08-09T21:47:17.496Z,38.69
2022-08-09T21:49:48.125Z,38.86
2022-08-09T21:52:20.649Z,38.71
2022-08-09T21:55:03.357Z,38.62
2022-08-09T21:57:36.966Z,38.81
2022-08-09T22:00:26.803Z,39.24
2022-08-09T22:03:04.649Z,39.52
2022-08-09T22:05:37.196Z,39.40
2022-08-09T22:08:15.969Z,39.61
2022-08-09T22:11:49.138Z,39.88
2022-08-09T22:13:36.968Z,40.34
2022-08-09T22:16:09.278Z,40.39
2022-08-09T22:18:53.059Z,40.93
2022-08-09T22:21:25.152Z,40.88
2022-08-09T22:24:17.199Z,40.90
2022-08-09T22:26:51.554Z,41.43
2022-08-09T22:29:26.848Z,40.87
2022-08-09T22:31:59.631Z,40.80
2022-08-09T22:34:27.660Z,40.67
2022-08-09T22:36:57.476Z,40.86
2022-08-09T22:39:56.283Z,41.37
2022-08-09T22:42:21.874Z,41.88
2022-08-09T22:45:00.566Z,41.79
2022-08-09T22:48:17.815Z,42.13
2022-08-09T22:50:31.753Z,41.87
2022-08-09T22:53:03.476Z,42.24
2022-08-09T22:56:05.848Z,42.22
2022-08-09T22:58:31.036Z,42.40
2022-08-09T23:01:05.853Z,42.53
2022-08-09T23:04:05.092Z,42.46
2022-08-09T23:06:35.635Z,42.62
2022-08-09T23:09:05.917Z,42.90
2022-08-09T23:11:32.953Z,42.94
2022-08-09T23:13:59.886Z,43.09
2022-08-09T23:16:26.769Z,43.26
2022-08-09T23:18:53.633Z,43.53
2022-08-09T23:21:25.113Z,43.48
2022-08-09T23:23:58.846Z,43.32
2022-08-09T23:27:02.452Z,43.54
2022-08-09T23:29:31.043Z,43.29
2022-08-09T23:31:57.959Z,43.65
2022-08-09T23:34:24.868Z,43.75
2022-08-09T23:36:51.746Z,43.71
2022-08-09T23:39:18.724Z,43.76
2022-08-09T23:41:45.675Z,44.07
2022-08-09T23:44:12.518Z,44.58
2022-08-09T23:46:39.582Z,44.64
2022-08-09T23:49:06.544Z,45.19
2022-08-09T23:51:33.437Z,45.01
2022-08-09T23:54:03.308Z,45.32
2022-08-09T23:56:53.256Z,45.25
2022-08-09T23:59:21.545Z,44.80
